createdAt,value
2023-05-19T00:08:12.090Z,62.40
2023-05-19T00:18:34.613Z,62.50
2023-05-19T00:28:56.334Z,63.64
2023-05-19T00:39:18.218Z,69.92
2023-05-19T00:49:40.450Z,71.51
2023-05-19T01:00:04.256Z,71.61
2023-05-19T01:10:26.246Z,68.85
2023-05-19T01:20:53.588Z,71.48
2023-05-19T01:31:16.874Z,72.88
2023-05-19T01:41:42.368Z,71.23
2023-05-19T01:52:04.517Z,74.37
2023-05-19T02:02:43.980Z,71.53
2023-05-19T02:13:09.316Z,75.06
2023-05-19T02:23:31.160Z,72.97
2023-05-19T02:33:52.929Z,70.88
2023-05-19T02:44:14.772Z,74.14
2023-05-19T02:54:36.660Z,70.71
2023-05-19T03:04:58.456Z,72.66
2023-05-19T03:15:22.949Z,77.92
2023-05-19T03:25:44.948Z,75.69
2023-05-19T03:36:07.232Z,76.50
2023-05-19T03:46:29.130Z,71.61
2023-05-19T03:56:51.287Z,72.03
2023-05-19T04:07:13.121Z,70.40
2023-05-19T04:17:35.179Z,74.43
2023-05-19T04:27:57.929Z,72.78
2023-05-19T04:38:20.274Z,75.40
2023-05-19T04:48:42.801Z,77.36
2023-05-19T04:59:04.742Z,69.32
2023-05-19T05:09:26.719Z,68.75
2023-05-19T05:19:48.916Z,68.78
2023-05-19T05:30:11.036Z,70.64
2023-05-19T05:40:32.908Z,70.72
2023-05-19T05:50:56.867Z,68.03
2023-05-19T06:01:18.716Z,69.80
2023-05-19T06:11:40.552Z,67.33
2023-05-19T06:22:02.475Z,65.18
2023-05-19T06:32:24.380Z,65.18
2023-05-19T06:42:46.299Z,61.54
2023-05-19T06:53:08.075Z,60.25
2023-05-19T07:03:10.084Z,59.99
2023-05-19T07:13:11.638Z,58.65
2023-05-19T07:23:13.278Z,55.44
2023-05-19T07:43:33.588Z,56.92
2023-05-19T07:53:35.124Z,52.64
2023-05-19T08:03:57.817Z,53.99
2023-05-19T08:14:22.259Z,49.43
2023-05-19T08:24:44.683Z,48.35
2023-05-19T08:35:07.641Z,47.35
2023-05-19T08:45:30.678Z,47.58
2023-05-19T08:55:55.510Z,45.47
2023-05-19T09:06:17.381Z,43.93
2023-05-19T09:16:39.261Z,46.32
2023-05-19T09:27:02.276Z,45.60
2023-05-19T09:37:24.794Z,41.65
2023-05-19T09:47:27.887Z,46.19
2023-05-19T09:57:36.942Z,46.91
2023-05-19T10:07:40.538Z,46.01
2023-05-19T10:17:43.411Z,44.22
2023-05-19T10:28:00.650Z,47.03
2023-05-19T10:38:13.326Z,45.58
2023-05-19T10:48:16.799Z,44.23
2023-05-19T10:58:39.594Z,45.32
2023-05-19T11:08:41.556Z,45.38
2023-05-19T11:19:06.105Z,45.52
2023-05-19T11:29:28.269Z,47.03
2023-05-19T11:39:50.222Z,46.33
2023-05-19T11:50:12.794Z,43.79
2023-05-19T12:00:38.976Z,45.76
2023-05-19T12:11:01.021Z,44.56
2023-05-19T12:21:22.970Z,44.92
2023-05-19T12:31:48.307Z,45.53
2023-05-19T12:42:11.412Z,46.10
2023-05-19T12:52:35.590Z,42.27
2023-05-19T13:03:05.694Z,41.83
2023-05-19T13:13:28.025Z,42.06
2023-05-19T13:23:49.936Z,43.87
2023-05-19T13:34:11.735Z,44.88
2023-05-19T13:44:33.569Z,44.30
2023-05-19T13:54:56.665Z,40.99
2023-05-19T14:05:19.078Z,40.46
2023-05-19T14:15:41.311Z,40.95
2023-05-19T14:26:03.157Z,43.45
2023-05-19T14:36:25.025Z,41.97
2023-05-19T14:46:46.993Z,41.30
2023-05-19T14:57:08.843Z,43.25
2023-05-19T15:07:11.106Z,43.97
2023-05-19T15:17:13.027Z,42.21
2023-05-19T15:27:36.445Z,43.33
2023-05-19T15:37:38.010Z,42.55
2023-05-19T15:47:39.485Z,43.33
2023-05-19T15:57:41.334Z,42.73
2023-05-19T16:07:43.165Z,43.31
2023-05-19T16:17:44.806Z,42.50
2023-05-19T16:27:46.466Z,39.86
2023-05-19T16:37:48.551Z,42.62
2023-05-19T16:47:50.058Z,42.85
2023-05-19T16:58:12.147Z,41.24
2023-05-19T17:08:33.907Z,41.56
2023-05-19T17:18:56.029Z,40.79
2023-05-19T17:29:17.933Z,41.34
2023-05-19T17:39:20.163Z,40.96
2023-05-19T17:49:22.979Z,41.63
2023-05-19T17:59:24.962Z,41.44
2023-05-19T18:09:28.918Z,41.74
2023-05-19T18:19:30.734Z,44.03
2023-05-19T18:29:34.227Z,43.69
2023-05-19T18:39:36.865Z,45.06
2023-05-19T18:49:58.925Z,44.46
2023-05-19T19:00:20.778Z,44.56
2023-05-19T19:10:42.640Z,43.54
2023-05-19T19:21:06.039Z,46.14
2023-05-19T19:31:30.852Z,45.17
2023-05-19T19:41:52.707Z,45.35
2023-05-19T19:51:54.222Z,47.11
2023-05-19T20:02:16.119Z,47.61
2023-05-19T20:12:38.256Z,47.53
2023-05-19T20:22:40.208Z,48.10
2023-05-19T20:32:41.881Z,49.07
2023-05-19T20:42:43.492Z,49.55
2023-05-19T20:52:44.975Z,50.69
2023-05-19T21:02:46.580Z,49.80
2023-05-19T21:12:48.111Z,50.42
2023-05-19T21:22:49.593Z,51.79
2023-05-19T21:32:51.316Z,51.73
2023-05-19T21:42:52.929Z,53.42
2023-05-19T21:52:54.762Z,53.24
2023-05-19T22:03:16.764Z,53.11
2023-05-19T22:13:41.020Z,55.48
2023-05-19T22:24:03.031Z,54.23
2023-05-19T22:34:25.161Z,53.66
2023-05-19T22:44:46.924Z,55.25
2023-05-19T22:55:09.319Z,54.23
2023-05-19T23:05:31.236Z,56.07
2023-05-19T23:15:53.098Z,56.46
2023-05-19T23:26:14.936Z,55.85
2023-05-19T23:36:37.026Z,57.27
2023-05-19T23:46:59.021Z,56.30
2023-05-19T23:57:20.974Z,57.21
